Time;durP1;ratioP1;P1;durP2;ratioP2;P2;SDS_P1;SDS_P2;PMS_P1;PMS_P2;Temp;Humidity;BMP_temperature;BMP_pressure;BME280_temperature;BME280_humidity;BME280_pressure;Samples;Min_cycle;Max_cycle;Signal;HPM_P1;HPM_P2
2023/08/28 00:01:20;;;;;;;9.63;5.78;;;;;;;25.70;54.55;98913.75;7764086;32;39994;-86
2023/08/28 00:05:36;;;;;;;11.25;5.55;;;;;;;25.84;54.02;98910.19;7762280;32;38006;-86
2023/08/28 00:09:52;;;;;;;11.02;5.40;;;;;;;25.77;54.31;98907.38;7763969;32;37188;-85
2023/08/28 00:14:08;;;;;;;9.25;4.90;;;;;;;25.90;53.94;98916.16;7763787;32;40071;-85
2023/08/28 00:18:25;;;;;;;8.85;5.25;;;;;;;25.78;54.11;98903.37;7763627;32;40708;-85
2023/08/28 00:22:41;;;;;;;8.27;5.22;;;;;;;25.68;54.67;98910.53;7763531;32;37925;-86
2023/08/28 00:26:58;;;;;;;9.65;5.62;;;;;;;25.75;54.42;98902.19;7763591;32;36994;-84
2023/08/28 00:31:14;;;;;;;7.80;5.00;;;;;;;25.77;54.33;98904.59;7763483;32;39278;-85
2023/08/28 00:35:31;;;;;;;7.25;4.75;;;;;;;25.81;54.00;98895.00;7763376;32;39696;-84
2023/08/28 00:39:48;;;;;;;8.68;5.40;;;;;;;25.70;54.29;98902.59;7764568;32;37961;-84
2023/08/28 00:44:04;;;;;;;8.50;4.90;;;;;;;25.72;54.15;98891.03;7766963;32;37767;-85
2023/08/28 00:48:21;;;;;;;9.65;5.10;;;;;;;25.70;54.31;98891.41;7766786;32;39255;-84
2023/08/28 00:52:37;;;;;;;10.98;5.15;;;;;;;25.60;54.66;98886.63;7765582;32;39902;-84
2023/08/28 00:56:55;;;;;;;8.95;4.90;;;;;;;25.42;55.17;98883.75;7764565;32;38128;-85
2023/08/28 01:01:11;;;;;;;8.02;4.65;;;;;;;25.49;54.81;98881.81;7739661;32;37233;-85
2023/08/28 01:05:34;;;;;;;10.55;5.70;;;;;;;25.15;56.16;98888.81;7739517;32;40118;-85
2023/08/28 01:10:09;;;;;;;8.95;5.22;;;;;;;25.29;55.64;98889.69;7739562;32;40822;-85
2023/08/28 01:14:27;;;;;;;9.82;5.28;;;;;;;25.29;55.59;98889.69;7739399;32;38706;-85
2023/08/28 01:18:43;;;;;;;12.63;5.05;;;;;;;24.94;57.02;98887.53;7739173;32;36944;-85
2023/08/28 01:23:45;;;;;;;8.73;5.40;;;;;;;24.72;57.74;98884.62;7739246;32;39391;-85
2023/08/28 01:28:02;;;;;;;9.30;5.50;;;;;;;24.61;58.41;98883.78;7735995;32;39840;-85
2023/08/28 01:32:18;;;;;;;8.80;5.20;;;;;;;24.77;57.91;98880.69;7738062;32;38681;-86
2023/08/28 01:36:43;;;;;;;8.45;5.47;;;;;;;24.95;57.32;98875.19;7739274;32;37016;-86
2023/08/28 01:41:05;;;;;;;10.18;5.78;;;;;;;25.01;56.80;98884.78;7743350;32;40103;-85
2023/08/28 01:45:22;;;;;;;10.23;5.87;;;;;;;25.01;56.74;98886.75;7765024;32;40784;-85
2023/08/28 01:49:39;;;;;;;12.00;6.10;;;;;;;24.44;58.34;98895.56;7765506;32;39130;-85
2023/08/28 01:53:55;;;;;;;10.07;6.05;;;;;;;24.52;58.12;98891.62;7738987;32;36484;-85
2023/08/28 01:58:12;;;;;;;9.75;6.00;;;;;;;24.27;59.03;98897.03;7738954;32;38292;-85
2023/08/28 02:02:29;;;;;;;9.18;5.65;;;;;;;24.36;58.52;98901.06;7738735;32;41510;-85
2023/08/28 02:06:45;;;;;;;10.80;5.97;;;;;;;24.33;58.65;98890.69;7738844;32;38027;-85
2023/08/28 02:11:01;;;;;;;12.40;5.78;;;;;;;24.03;59.32;98898.44;7738977;32;37305;-85
2023/08/28 02:15:19;;;;;;;10.90;5.87;;;;;;;24.18;58.86;98905.69;7738830;32;39265;-85
2023/08/28 02:19:35;;;;;;;10.43;5.95;;;;;;;23.92;59.68;98913.06;7738632;32;40897;-85
2023/08/28 02:23:51;;;;;;;10.63;6.20;;;;;;;23.86;59.96;98897.88;7738408;32;37931;-85
2023/08/28 02:28:08;;;;;;;12.68;6.62;;;;;;;23.63;60.38;98900.81;7738708;32;37308;-85
2023/08/28 02:32:24;;;;;;;9.98;6.05;;;;;;;23.31;61.58;98900.44;7738698;32;39504;-85
2023/08/28 02:36:41;;;;;;;10.55;5.57;;;;;;;23.01;62.38;98912.34;7738593;32;40087;-85
2023/08/28 02:41:05;;;;;;;9.45;6.07;;;;;;;23.24;61.53;98910.28;7745785;32;38699;-85
2023/08/28 02:45:21;;;;;;;8.43;5.60;;;;;;;22.78;62.65;98907.66;7741143;32;37155;-84
2023/08/28 02:49:37;;;;;;;9.50;6.18;;;;;;;22.96;61.88;98905.13;7738454;32;40092;-84
2023/08/28 02:53:54;;;;;;;9.70;5.82;;;;;;;23.01;61.74;98901.25;7738396;32;40019;-85
2023/08/28 02:58:10;;;;;;;9.23;6.00;;;;;;;22.60;63.10;98899.06;7738241;32;37855;-85
2023/08/28 03:02:26;;;;;;;12.13;5.57;;;;;;;22.60;62.99;98892.72;7737195;32;36940;-84
2023/08/28 03:06:43;;;;;;;10.85;6.25;;;;;;;22.21;64.10;98898.44;7738380;32;39382;-85
2023/08/28 03:10:59;;;;;;;9.18;5.57;;;;;;;22.78;62.21;98904.09;7738083;32;40819;-85
2023/08/28 03:15:16;;;;;;;10.00;6.30;;;;;;;23.16;60.88;98911.41;7738123;32;38058;-84
2023/08/28 03:19:32;;;;;;;8.68;5.15;;;;;;;22.37;63.49;98913.03;7762972;32;37909;-84
2023/08/28 03:23:48;;;;;;;9.32;5.85;;;;;;;22.86;61.79;98914.91;7762882;32;39873;-84
2023/08/28 03:28:07;;;;;;;8.73;5.55;;;;;;;22.68;62.29;98914.69;7738006;32;39963;-85
2023/08/28 03:32:24;;;;;;;9.52;5.53;;;;;;;22.88;61.63;98925.66;7737962;32;37836;-85
2023/08/28 03:36:41;;;;;;;10.70;5.43;;;;;;;23.00;61.09;98922.66;7761683;32;37008;-84
2023/08/28 03:40:58;;;;;;;9.65;5.53;;;;;;;22.93;61.46;98921.75;7764659;32;39293;-84
2023/08/28 03:45:14;;;;;;;9.15;5.18;;;;;;;22.83;61.83;98918.44;7764503;32;40746;-84
2023/08/28 03:49:30;;;;;;;10.38;5.37;;;;;;;22.80;61.77;98924.78;7764396;32;38510;-84
2023/08/28 03:53:47;;;;;;;8.52;5.00;;;;;;;23.03;61.00;98921.09;7764552;32;36743;-84
2023/08/28 03:58:04;;;;;;;10.73;5.50;;;;;;;23.23;60.29;98924.56;7764498;32;39504;-84
2023/08/28 04:02:20;;;;;;;9.00;5.93;;;;;;;22.78;62.54;98932.66;7764230;32;39972;-84
2023/08/28 04:06:36;;;;;;;9.40;5.28;;;;;;;23.11;61.39;98925.63;7764067;32;37984;-84
2023/08/28 04:10:53;;;;;;;12.10;5.60;;;;;;;23.17;60.99;98926.09;7764042;32;37675;-84
2023/08/28 04:15:09;;;;;;;8.60;5.10;;;;;;;23.22;60.72;98907.09;7770810;32;40032;-84
2023/08/28 04:19:26;;;;;;;8.02;4.20;;;;;;;23.09;61.00;98896.59;7746045;32;39918;-85
2023/08/28 04:23:42;;;;;;;7.72;4.78;;;;;;;23.13;60.84;98897.41;7745663;32;37823;-84
2023/08/28 04:27:58;;;;;;;7.68;4.15;;;;;;;23.46;59.78;98906.94;7751123;32;36865;-84
2023/08/28 04:32:15;;;;;;;10.60;4.43;;;;;;;23.50;59.55;98897.47;7772557;32;39505;-85
2023/08/28 04:36:31;;;;;;;9.65;4.70;;;;;;;23.34;60.21;98897.69;7772302;32;40737;-85
2023/08/28 04:40:47;;;;;;;8.23;4.82;;;;;;;23.54;59.48;98901.09;7772272;32;37990;-85
2023/08/28 04:45:04;;;;;;;11.02;5.10;;;;;;;23.65;59.03;98906.00;7772230;32;37000;-84
2023/08/28 04:49:21;;;;;;;11.12;4.85;;;;;;;23.63;59.21;98896.03;7772098;32;39820;-84
2023/08/28 04:53:37;;;;;;;8.02;4.93;;;;;;;23.55;59.72;98891.56;7771958;32;39877;-85
2023/08/28 04:57:56;;;;;;;10.57;4.53;;;;;;;23.55;59.66;98885.22;7771827;32;37838;-85
2023/08/28 05:02:13;;;;;;;11.57;3.67;;;;;;;23.63;59.24;98879.34;7771654;32;37067;-85
2023/08/28 05:06:29;;;;;;;8.32;3.75;;;;;;;23.74;58.73;98881.44;7771589;32;40063;-84
2023/08/28 05:10:45;;;;;;;12.10;4.50;;;;;;;23.69;58.91;98884.56;7771528;32;40039;-85
2023/08/28 05:15:02;;;;;;;9.35;4.25;;;;;;;23.92;58.25;98893.56;7770949;32;38711;-84
2023/08/28 05:19:19;;;;;;;7.05;4.03;;;;;;;23.91;58.58;98896.72;7744824;32;37180;-84
2023/08/28 05:23:35;;;;;;;5.72;3.47;;;;;;;23.94;58.51;98874.50;7744192;32;40103;-85
2023/08/28 05:27:51;;;;;;;7.43;4.30;;;;;;;24.00;58.23;98869.38;7738808;32;40115;-85
2023/08/28 05:32:08;;;;;;;7.12;3.90;;;;;;;24.15;57.06;98868.31;7739120;32;37845;-84
2023/08/28 05:36:24;;;;;;;8.18;3.75;;;;;;;24.23;57.24;98868.34;7752925;32;37862;-85
2023/08/28 05:40:41;;;;;;;9.25;3.80;;;;;;;24.18;57.59;98861.97;7766218;32;39886;-85
2023/08/28 05:44:57;;;;;;;4.97;3.62;;;;;;;24.47;56.80;98858.56;7765941;32;39850;-85
2023/08/28 05:49:14;;;;;;;5.75;3.30;;;;;;;24.36;57.20;98861.28;7764292;32;38651;-73
2023/08/28 05:53:30;;;;;;;6.85;4.20;;;;;;;24.58;57.01;98845.56;7766194;32;36982;-73
2023/08/28 05:57:46;;;;;;;9.80;3.62;;;;;;;24.83;55.80;98844.88;7741853;32;39230;-73
2023/08/28 06:02:03;;;;;;;7.07;3.67;;;;;;;24.50;56.64;98847.44;7737753;32;39991;-73
2023/08/28 06:06:19;;;;;;;9.50;4.47;;;;;;;24.90;55.92;98845.69;7738787;32;38555;-73
2023/08/28 06:10:40;;;;;;;7.47;4.22;;;;;;;24.96;55.64;98832.19;7751660;32;37134;-73
2023/08/28 06:14:56;;;;;;;7.35;4.30;;;;;;;25.26;54.69;98833.91;7765622;32;39085;-71
2023/08/28 06:19:13;;;;;;;11.00;4.90;;;;;;;25.25;54.15;98818.31;7765422;32;39902;-71
2023/08/28 06:23:30;;;;;;;7.45;4.28;;;;;;;25.20;54.21;98808.38;7764533;32;38625;-71
2023/08/28 06:27:46;;;;;;;15.13;9.52;;;;;;;25.27;54.29;98813.22;7765763;32;37808;-84
2023/08/28 06:32:03;;;;;;;9.05;4.07;;;;;;;25.43;54.25;98799.69;7764052;32;39197;-86
2023/08/28 06:36:19;;;;;;;7.22;3.72;;;;;;;25.36;54.33;98813.63;7751098;32;39949;-86
2023/08/28 06:40:35;;;;;;;7.47;4.20;;;;;;;25.40;54.33;98817.19;7751419;32;37962;-87
2023/08/28 06:44:52;;;;;;;5.62;3.85;;;;;;;25.48;53.73;98813.22;7751004;32;37332;-87
2023/08/28 06:49:09;;;;;;;7.78;4.70;;;;;;;25.74;53.35;98804.91;7742516;32;39834;-86
2023/08/28 06:53:25;;;;;;;10.50;4.28;;;;;;;26.04;53.18;98793.34;7738219;32;39919;-86
2023/08/28 06:57:42;;;;;;;7.20;4.07;;;;;;;26.33;52.26;98787.72;7738902;32;38465;-85
2023/08/28 07:02:00;;;;;;;9.60;4.87;;;;;;;26.37;52.10;98766.13;7765207;32;37747;-86
2023/08/28 07:06:18;;;;;;;14.80;4.75;;;;;;;26.55;52.49;98766.87;7754328;32;39265;-86
2023/08/28 07:10:34;;;;;;;6.87;4.05;;;;;;;26.70;51.93;98761.25;7745526;32;40405;-85
2023/08/28 07:15:18;;;;;;;9.25;4.30;;;;;;;25.89;53.73;98761.00;7755186;32;39385;-86
2023/08/28 07:19:34;;;;;;;6.78;4.00;;;;;;;26.52;52.55;98741.75;7758279;32;37111;-87
2023/08/28 07:23:51;;;;;;;9.93;6.62;;;;;;;26.98;51.80;98724.78;7762287;32;39238;-87
2023/08/28 07:28:08;;;;;;;17.65;7.35;;;;;;;27.40;50.00;98718.53;7756210;32;39960;-76
2023/08/28 07:32:25;;;;;;;11.38;7.68;;;;;;;27.74;49.89;98715.84;7749553;32;37828;-76
2023/08/28 07:36:43;;;;;;;15.68;8.48;;;;;;;28.22;47.24;98711.41;7750428;32;37181;-88
2023/08/28 07:41:00;;;;;;;15.80;8.88;;;;;;;28.31;47.29;98719.31;7749735;32;39923;-86
2023/08/28 07:45:17;;;;;;;15.73;9.27;;;;;;;28.55;45.90;98729.44;7736725;32;40067;-85
2023/08/28 07:49:34;;;;;;;20.30;10.45;;;;;;;28.01;47.20;98732.81;7736077;32;38915;-85
2023/08/28 07:53:50;;;;;;;12.88;8.80;;;;;;;29.11;45.40;98740.28;7736731;32;35915;-85
2023/08/28 07:58:07;;;;;;;16.70;9.35;;;;;;;29.35;44.60;98746.00;7736648;32;39142;-86
2023/08/28 08:02:24;;;;;;;16.83;8.38;;;;;;;29.58;43.75;98739.62;7736674;32;39888;-88
2023/08/28 08:06:40;;;;;;;13.55;7.20;;;;;;;29.74;44.41;98734.13;7761397;32;38541;-86
2023/08/28 08:10:57;;;;;;;14.93;8.50;;;;;;;30.36;43.72;98708.56;7764259;32;37386;-86
2023/08/28 08:15:13;;;;;;;17.62;8.90;;;;;;;30.25;43.52;98705.94;7763980;32;39361;-87
2023/08/28 08:19:30;;;;;;;15.63;8.40;;;;;;;30.48;42.59;98709.94;7745114;32;41079;-86
2023/08/28 08:23:48;;;;;;;14.90;9.38;;;;;;;30.76;42.54;98702.09;7736687;32;37891;-75
2023/08/28 08:28:04;;;;;;;14.35;8.30;;;;;;;30.66;42.41;98690.63;7741106;32;37890;-87
2023/08/28 08:32:21;;;;;;;22.37;9.13;;;;;;;30.44;43.55;98679.06;7749795;32;39424;-86
2023/08/28 08:36:39;;;;;;;14.05;7.80;;;;;;;30.75;41.47;98681.59;7748364;32;40081;-86
2023/08/28 08:40:58;;;;;;;14.55;7.70;;;;;;;30.77;41.72;98683.97;7748414;32;37890;-86
2023/08/28 08:45:15;;;;;;;14.85;8.35;;;;;;;30.87;40.36;98692.19;7751942;32;36857;-85
2023/08/28 08:49:38;;;;;;;15.30;8.43;;;;;;;30.94;40.92;98687.66;7747146;32;39479;-84
2023/08/28 08:54:04;;;;;;;16.15;8.57;;;;;;;31.11;39.89;98694.09;7763009;32;40090;-84
2023/08/28 08:58:21;;;;;;;23.70;8.68;;;;;;;31.06;40.92;98690.59;7762982;32;37925;-84
2023/08/28 09:02:40;;;;;;;21.70;8.85;;;;;;;31.49;39.49;98699.22;7764702;32;37224;-86
2023/08/28 09:06:58;;;;;;;17.65;8.50;;;;;;;31.90;38.12;98684.47;7765484;32;39137;-85
2023/08/28 09:11:14;;;;;;;12.77;8.38;;;;;;;32.10;38.98;98692.03;7759538;32;40615;-85
2023/08/28 09:15:31;;;;;;;14.90;8.02;;;;;;;32.35;38.67;98680.03;7759215;32;37771;-85
2023/08/28 09:19:47;;;;;;;15.88;8.65;;;;;;;32.23;37.16;98673.13;7738723;32;37130;-85
2023/08/28 09:24:13;;;;;;;18.48;8.38;;;;;;;32.33;37.99;98671.25;7753267;32;40032;-85
2023/08/28 09:28:30;;;;;;;9.68;4.57;;;;;;;31.78;39.16;98677.53;7766089;32;39980;-85
2023/08/28 09:32:46;;;;;;;11.63;5.78;;;;;;;30.99;41.14;98679.47;7763334;32;38683;-85
2023/08/28 09:37:03;;;;;;;11.05;5.20;;;;;;;31.01;41.98;98685.47;7765687;32;37159;-85
2023/08/28 09:41:19;;;;;;;16.27;5.37;;;;;;;31.26;42.05;98678.47;7765020;32;40233;-86
2023/08/28 09:45:37;;;;;;;14.75;5.20;;;;;;;31.36;41.35;98668.97;7764932;32;40003;-86
2023/08/28 09:49:53;;;;;;;14.05;5.10;;;;;;;31.27;41.55;98660.34;7765316;32;37997;-85
2023/08/28 09:54:10;;;;;;;17.10;6.05;;;;;;;30.46;43.45;98662.56;7763752;32;37082;-85
2023/08/28 09:58:28;;;;;;;10.20;5.57;;;;;;;30.20;43.26;98647.41;7765757;32;39995;-85
2023/08/28 10:02:44;;;;;;;13.62;5.95;;;;;;;29.55;44.88;98642.22;7764664;32;40894;-85
2023/08/28 10:07:04;;;;;;;12.23;6.53;;;;;;;29.90;44.29;98649.19;7765647;32;37914;-85
2023/08/28 10:11:21;;;;;;;10.77;7.15;;;;;;;29.93;43.92;98639.13;7740601;32;37101;-85
2023/08/28 10:15:46;;;;;;;14.50;10.32;;;;;;;29.68;44.40;98634.72;7738228;32;39303;-83
2023/08/28 10:20:08;;;;;;;12.90;6.47;;;;;;;29.20;45.53;98633.16;7738548;32;40432;-86
2023/08/28 10:24:26;;;;;;;12.75;7.25;;;;;;;30.13;44.14;98628.69;7737511;32;37955;-85
2023/08/28 10:28:42;;;;;;;15.65;7.00;;;;;;;30.94;42.25;98614.50;7745337;32;36542;-85
2023/08/28 10:32:59;;;;;;;12.43;6.37;;;;;;;31.13;41.56;98604.38;7762470;32;39986;-85
2023/08/28 10:37:17;;;;;;;11.02;6.68;;;;;;;31.61;40.81;98591.50;7763480;32;40025;-86
2023/08/28 10:41:43;;;;;;;15.50;7.22;;;;;;;32.12;40.68;98577.59;7763867;32;37885;-85
2023/08/28 10:46:03;;;;;;;12.77;6.47;;;;;;;32.61;39.01;98567.28;7763105;32;37271;-85
2023/08/28 10:50:19;;;;;;;10.48;6.30;;;;;;;32.53;38.74;98558.22;7764922;32;40070;-84
2023/08/28 10:54:42;;;;;;;12.20;6.60;;;;;;;32.17;39.27;98562.97;7765349;32;40213;-86
2023/08/28 10:59:17;;;;;;;12.45;6.80;;;;;;;32.96;38.04;98564.53;7760321;32;38429;-86
2023/08/28 11:03:56;;;;;;;11.63;6.47;;;;;;;32.63;39.21;98559.16;7741269;32;37635;-86
2023/08/28 11:08:14;;;;;;;10.45;6.43;;;;;;;33.16;37.98;98559.44;7738269;32;39874;-86
2023/08/28 11:12:42;;;;;;;14.38;6.47;;;;;;;33.11;37.61;98548.72;7738079;32;40294;-84
2023/08/28 11:17:08;;;;;;;16.08;6.55;;;;;;;33.78;35.94;98538.34;7736299;32;37823;-84
2023/08/28 11:21:24;;;;;;;16.50;6.57;;;;;;;33.91;36.24;98536.22;7738019;32;36963;-84
2023/08/28 11:25:41;;;;;;;15.82;7.30;;;;;;;33.92;35.46;98526.50;7737054;32;39997;-84
2023/08/28 11:29:57;;;;;;;13.68;7.10;;;;;;;34.49;33.68;98528.38;7737889;32;40893;-84
2023/08/28 11:34:14;;;;;;;15.95;6.00;;;;;;;35.20;32.57;98529.50;7736391;32;38008;-84
2023/08/28 11:38:30;;;;;;;15.40;6.47;;;;;;;35.37;30.49;98516.63;7737976;32;37789;-84
2023/08/28 11:42:48;;;;;;;11.93;5.47;;;;;;;35.60;29.89;98520.06;7751720;32;39794;-85
2023/08/28 11:47:04;;;;;;;14.30;6.10;;;;;;;36.15;28.87;98510.69;7764620;32;40874;-85
2023/08/28 11:51:26;;;;;;;17.62;5.82;;;;;;;36.47;27.31;98503.50;7764544;32;38630;-85
2023/08/28 11:55:42;;;;;;;10.77;5.57;;;;;;;36.65;27.05;98496.91;7764775;32;37108;-85
2023/08/28 12:00:00;;;;;;;12.68;6.03;;;;;;;36.98;26.76;98493.25;7763273;32;40063;-85
2023/08/28 12:04:22;;;;;;;13.40;6.03;;;;;;;37.27;26.60;98480.44;7764322;32;40672;-86
2023/08/28 12:08:40;;;;;;;;;;;;;;;38.04;26.00;98487.28;7764409;32;38621;-85
2023/08/28 12:12:56;;;;;;;14.27;5.60;;;;;;;38.10;25.51;98486.09;7764393;32;37643;-86
2023/08/28 12:17:22;;;;;;;16.12;5.57;;;;;;;38.21;25.84;98484.75;7763843;32;39887;-85
2023/08/28 12:21:41;;;;;;;11.50;5.45;;;;;;;38.54;24.77;98473.06;7763852;32;40877;-85
2023/08/28 12:25:58;;;;;;;10.98;5.10;;;;;;;38.54;24.57;98478.00;7763619;32;38717;-86
2023/08/28 12:30:20;;;;;;;11.50;4.82;;;;;;;37.74;25.08;98464.56;7763659;32;37480;-86
2023/08/28 12:34:37;;;;;;;12.70;5.20;;;;;;;38.00;24.95;98449.72;7764823;32;39062;-85
2023/08/28 12:38:54;;;;;;;13.07;5.37;;;;;;;38.48;24.75;98443.72;7767127;32;39980;-85
2023/08/28 12:43:11;;;;;;;14.05;5.22;;;;;;;38.84;23.83;98445.28;7766919;32;37636;-85
2023/08/28 12:47:27;;;;;;;7.95;5.10;;;;;;;38.59;23.51;98451.69;7766901;32;37127;-86
2023/08/28 12:51:44;;;;;;;8.98;4.57;;;;;;;38.96;23.58;98431.19;7767057;32;40131;-86
2023/08/28 12:56:00;;;;;;;11.00;5.30;;;;;;;39.59;23.27;98428.53;7766767;32;39889;-85
2023/08/28 13:00:17;;;;;;;14.90;5.18;;;;;;;40.01;21.59;98419.81;7766695;32;37733;-84
2023/08/28 13:04:33;;;;;;;15.07;4.35;;;;;;;40.12;22.05;98406.41;7766637;32;37969;-84
2023/08/28 13:08:50;;;;;;;9.30;4.47;;;;;;;40.05;20.91;98406.09;7765317;32;39482;-84
2023/08/28 13:13:07;;;;;;;12.25;4.68;;;;;;;40.16;21.38;98394.75;7763698;32;39900;-84
2023/08/28 13:17:24;;;;;;;10.63;4.20;;;;;;;39.87;21.80;98396.59;7751339;32;37959;-84
2023/08/28 13:21:41;;;;;;;12.85;4.30;;;;;;;39.78;21.11;98391.88;7752757;32;36999;-84
2023/08/28 13:25:58;;;;;;;6.95;4.15;;;;;;;40.55;20.92;98377.87;7752655;32;40191;-85
2023/08/28 13:30:14;;;;;;;8.80;4.32;;;;;;;40.74;19.93;98369.63;7744041;32;39866;-83
2023/08/28 13:34:30;;;;;;;11.70;4.55;;;;;;;40.65;20.49;98366.97;7733701;32;37677;-84
2023/08/28 13:38:48;;;;;;;19.83;4.28;;;;;;;40.22;20.05;98355.59;7738652;32;36944;-85
2023/08/28 13:43:04;;;;;;;11.80;4.28;;;;;;;40.43;20.36;98350.56;7738582;32;39917;-84
2023/08/28 13:47:21;;;;;;;10.07;4.30;;;;;;;40.34;19.90;98342.97;7749971;32;39614;-84
2023/08/28 13:51:38;;;;;;;14.60;4.62;;;;;;;40.66;19.63;98337.13;7750785;32;38775;-84
2023/08/28 13:55:55;;;;;;;8.98;3.70;;;;;;;40.98;18.81;98325.53;7751119;32;38103;-83
2023/08/28 14:00:12;;;;;;;11.65;4.47;;;;;;;41.30;18.98;98311.06;7751567;32;39332;-83
2023/08/28 14:04:28;;;;;;;12.50;4.20;;;;;;;41.08;18.47;98312.56;7737982;32;40776;-85
2023/08/28 14:08:45;;;;;;;12.02;4.20;;;;;;;40.61;19.69;98315.06;7738480;32;38404;-84
2023/08/28 14:13:01;;;;;;;11.38;4.00;;;;;;;40.94;18.71;98304.25;7738456;32;37109;-85
2023/08/28 14:17:18;;;;;;;9.65;4.20;;;;;;;41.11;18.29;98305.06;7738194;32;40145;-85
2023/08/28 14:21:35;;;;;;;13.80;4.20;;;;;;;40.92;19.52;98299.84;7738979;32;40649;-85
2023/08/28 14:25:51;;;;;;;11.88;4.57;;;;;;;41.04;18.85;98312.06;7737547;32;38598;-85
2023/08/28 14:30:09;;;;;;;13.80;4.53;;;;;;;41.22;19.29;98298.56;7737398;32;36755;-85
2023/08/28 14:34:25;;;;;;;12.82;4.28;;;;;;;41.23;18.63;98303.00;7738246;32;40018;-84
2023/08/28 14:38:41;;;;;;;12.80;3.97;;;;;;;41.02;18.61;98303.22;7738138;32;40845;-85
2023/08/28 14:42:58;;;;;;;9.70;4.15;;;;;;;41.16;18.78;98300.66;7738212;32;38070;-84
2023/08/28 14:47:15;;;;;;;12.75;3.78;;;;;;;41.76;18.47;98306.91;7737622;32;37670;-84
2023/08/28 14:51:31;;;;;;;12.82;4.50;;;;;;;41.86;18.09;98293.09;7738419;32;39325;-85
2023/08/28 14:55:56;;;;;;;12.30;4.62;;;;;;;41.46;18.69;98295.97;7737331;32;40016;-85
2023/08/28 15:00:13;;;;;;;8.40;4.00;;;;;;;41.59;17.17;98291.81;7736651;32;37619;-85
2023/08/28 15:04:30;;;;;;;12.30;3.60;;;;;;;41.81;17.63;98286.09;7738082;32;37159;-84
2023/08/28 15:08:46;;;;;;;9.27;4.57;;;;;;;41.88;17.98;98278.25;7737455;32;39404;-85
2023/08/28 15:13:03;;;;;;;9.25;3.47;;;;;;;40.91;17.32;98295.44;7738021;32;39931;-84
2023/08/28 15:17:20;;;;;;;17.40;4.12;;;;;;;40.61;17.82;98280.03;7737046;32;38041;-84
2023/08/28 15:21:36;;;;;;;8.60;3.90;;;;;;;40.57;17.75;98277.41;7736951;32;38107;-85
2023/08/28 15:25:53;;;;;;;9.82;3.83;;;;;;;40.62;18.18;98278.72;7737029;32;39376;-85
2023/08/28 15:30:10;;;;;;;8.60;3.60;;;;;;;40.38;17.84;98273.44;7737530;32;39931;-85
2023/08/28 15:34:26;;;;;;;12.02;3.70;;;;;;;40.17;18.14;98265.03;7737517;32;38675;-84
2023/08/28 15:38:43;;;;;;;12.10;3.87;;;;;;;40.04;18.44;98262.66;7737126;32;37528;-84
2023/08/28 15:42:59;;;;;;;7.37;3.33;;;;;;;39.77;18.99;98266.88;7737522;32;40042;-84
2023/08/28 15:47:16;;;;;;;13.07;3.78;;;;;;;39.77;19.14;98256.25;7735368;32;40863;-83
2023/08/28 15:51:32;;;;;;;10.45;3.47;;;;;;;39.93;19.32;98249.13;7745862;32;38120;-84
2023/08/28 15:55:52;;;;;;;7.60;3.25;;;;;;;39.73;19.17;98255.72;7748423;32;37858;-82
2023/08/28 16:00:09;;;;;;;12.37;3.60;;;;;;;39.85;19.49;98250.88;7746496;32;39286;-83
2023/08/28 16:04:29;;;;;;;13.77;3.58;;;;;;;39.89;18.56;98237.12;7737095;32;39992;-84
2023/08/28 16:08:46;;;;;;;13.60;3.42;;;;;;;39.56;19.34;98246.28;7735964;32;37827;-84
2023/08/28 16:13:04;;;;;;;15.95;4.07;;;;;;;39.58;19.67;98257.97;7736810;32;36729;-84
2023/08/28 16:17:21;;;;;;;17.48;4.50;;;;;;;39.47;19.88;98247.25;7736266;32;38004;-84
2023/08/28 16:21:38;;;;;;;11.27;4.00;;;;;;;39.67;19.47;98248.44;7736472;32;40174;-84
2023/08/28 16:25:55;;;;;;;9.88;3.50;;;;;;;39.44;20.02;98246.19;7736507;32;37661;-84
2023/08/28 16:30:12;;;;;;;14.87;3.50;;;;;;;39.53;20.60;98248.06;7735941;32;36996;-84
2023/08/28 16:34:29;;;;;;;13.85;3.40;;;;;;;39.48;20.39;98237.41;7736382;32;39376;-83
2023/08/28 16:38:46;;;;;;;11.30;3.72;;;;;;;39.36;20.81;98232.91;7735750;32;39888;-84
2023/08/28 16:43:03;;;;;;;8.02;3.65;;;;;;;39.08;21.74;98233.47;7734758;32;38431;-84
2023/08/28 16:47:20;;;;;;;13.23;3.78;;;;;;;39.06;21.91;98231.13;7735922;32;37354;-84
2023/08/28 16:51:38;;;;;;;12.18;3.75;;;;;;;38.88;22.29;98237.94;7735398;32;40126;-84
2023/08/28 16:55:55;;;;;;;19.40;4.70;;;;;;;38.63;23.34;98241.59;7735801;32;39819;-83
2023/08/28 17:00:12;;;;;;;12.65;3.97;;;;;;;38.27;24.15;98229.53;7735110;32;38797;-84
2023/08/28 17:04:30;;;;;;;15.32;4.53;;;;;;;37.79;26.08;98232.78;7735627;32;37959;-85
2023/08/28 17:08:46;;;;;;;10.02;3.78;;;;;;;37.49;27.20;98221.47;7735150;32;39257;-84
2023/08/28 17:13:03;;;;;;;8.30;3.45;;;;;;;37.05;28.08;98220.28;7735096;32;39886;-83
2023/08/28 17:17:20;;;;;;;10.85;4.00;;;;;;;36.52;28.03;98215.44;7735237;32;37862;-84
2023/08/28 17:21:39;;;;;;;8.63;3.37;;;;;;;36.30;28.16;98221.47;7736330;32;36938;-83
2023/08/28 17:25:56;;;;;;;13.20;3.65;;;;;;;35.83;29.36;98221.00;7746041;32;40142;-84
2023/08/28 17:30:14;;;;;;;16.60;5.85;;;;;;;35.59;29.60;98226.63;7758752;32;40018;-84
2023/08/28 17:34:30;;;;;;;11.57;4.68;;;;;;;35.20;30.20;98226.47;7749114;32;36460;-83
2023/08/28 17:38:47;;;;;;;9.68;4.68;;;;;;;34.92;31.28;98229.41;7738890;32;37824;-84
2023/08/28 17:43:04;;;;;;;14.38;4.93;;;;;;;34.75;31.91;98226.13;7752895;32;39387;-84
2023/08/28 17:47:21;;;;;;;12.85;4.47;;;;;;;34.27;32.16;98223.00;7762875;32;38546;-84
2023/08/28 17:51:38;;;;;;;17.62;4.50;;;;;;;34.07;31.82;98214.97;7765093;32;37744;-82
2023/08/28 17:55:55;;;;;;;8.95;3.65;;;;;;;33.76;31.83;98213.06;7760942;32;37376;-83
2023/08/28 18:00:12;;;;;;;12.75;3.95;;;;;;;33.43;31.86;98213.56;7739252;32;40020;-82
2023/08/28 18:04:29;;;;;;;12.20;4.03;;;;;;;33.22;31.67;98209.56;7738092;32;39754;-82
2023/08/28 18:08:46;;;;;;;14.18;5.03;;;;;;;32.98;32.28;98206.44;7754094;32;37839;-82
2023/08/28 18:13:03;;;;;;;11.20;4.32;;;;;;;32.86;33.06;98194.81;7764671;32;37168;-83
2023/08/28 18:17:19;;;;;;;15.77;4.18;;;;;;;32.38;34.40;98188.53;7765327;32;40065;-83
2023/08/28 18:21:36;;;;;;;9.57;4.12;;;;;;;32.33;34.48;98186.28;7763805;32;40057;-80
2023/08/28 18:25:56;;;;;;;14.23;4.62;;;;;;;32.23;34.38;98185.44;7750238;32;37868;-82
2023/08/28 18:30:14;;;;;;;14.43;4.40;;;;;;;32.12;34.19;98183.00;7750107;32;36778;-82
2023/08/28 18:34:33;;;;;;;12.30;4.12;;;;;;;32.08;33.78;98175.91;7749196;32;39055;-82
2023/08/28 18:38:56;;;;;;;12.65;4.65;;;;;;;31.67;34.75;98174.88;7750264;32;40314;-81
2023/08/28 18:43:12;;;;;;;12.90;4.37;;;;;;;31.52;35.62;98181.00;7750975;32;37821;-83
2023/08/28 18:47:28;;;;;;;9.07;3.72;;;;;;;31.42;35.99;98168.81;7749924;32;37963;-81
2023/08/28 18:51:47;;;;;;;19.62;4.20;;;;;;;31.49;34.75;98158.56;7750056;32;39392;-83
2023/08/28 18:56:03;;;;;;;13.45;4.37;;;;;;;31.58;33.81;98155.87;7750367;32;39779;-82
2023/08/28 19:00:20;;;;;;;9.48;3.90;;;;;;;31.75;33.18;98160.12;7750594;32;38069;-82
2023/08/28 19:04:39;;;;;;;11.57;4.12;;;;;;;31.50;33.79;98160.97;7749103;32;37005;-83
2023/08/28 19:08:56;;;;;;;15.27;4.00;;;;;;;31.50;33.63;98174.25;7751367;32;39546;-83
2023/08/28 19:13:12;;;;;;;12.27;4.20;;;;;;;31.56;33.48;98175.25;7748911;32;40773;-82
2023/08/28 19:17:28;;;;;;;8.73;3.97;;;;;;;31.53;33.50;98181.78;7750736;32;37814;-81
2023/08/28 19:21:47;;;;;;;12.88;3.80;;;;;;;31.40;33.36;98176.94;7748798;32;37748;-83
2023/08/28 19:26:05;;;;;;;13.57;4.00;;;;;;;31.41;33.11;98184.16;7674357;32;38245;-83
2023/08/28 19:30:21;;;;;;;13.50;4.43;;;;;;;31.03;33.10;98187.78;7662819;32;40782;-85
2023/08/28 19:34:38;;;;;;;18.67;5.22;;;;;;;31.08;33.07;98178.78;7667289;32;37919;-84
2023/08/28 19:38:54;;;;;;;12.60;3.87;;;;;;;31.21;32.74;98175.16;7669766;32;38099;-83
2023/08/28 19:43:10;;;;;;;9.82;3.87;;;;;;;31.19;32.93;98169.97;7669353;32;39006;-84
2023/08/28 19:47:27;;;;;;;13.27;4.37;;;;;;;31.43;32.56;98156.31;7668696;32;40744;-84
2023/08/28 19:51:50;;;;;;;11.57;4.40;;;;;;;30.69;33.91;98155.41;7671019;32;38632;-85
2023/08/28 19:56:10;;;;;;;7.43;4.10;;;;;;;31.33;33.15;98151.84;7665851;32;37180;-86
2023/08/28 20:00:27;;;;;;;13.35;3.78;;;;;;;31.25;32.99;98189.88;7669466;32;40071;-85
2023/08/28 20:04:45;;;;;;;8.90;4.43;;;;;;;31.49;32.79;98170.59;7667354;32;40820;-85